< < Back
Terminal Aerodrome Forecast


Current Version              Previous Versions:   1  2  3  4  5  6  7  8  9  

Terminal Aerodrome Forecast

104
FTUS42 KTAE 272322
TAFVLD
TAF
KVLD 272322Z 2800/2824 VRB03KT P6SM SKC
     FM281800 24006KT P6SM VCTS SCT060CB=

Latest METAR

282
SAUS70 KWBC 281600 RRI
MTRVLD
METAR KVLD 281553Z VRB03KT 10SM CLR 33/22 A3007 RMK AO2 SLP187
T03280222


USA.gov is the U.S. government's official web portal to all federal, state and local government web resources and services.